KOTM/OTM METAR and TAF weather

Enter ICAO airport designator
Station Type Date Time Source
KOTM METAR 2020/01/19 19:53 UTC NOAA

KOTM 191953Z AUTO 31015KT 8SM -SN OVC023 M15/M19 A3053 RMK AO2 SNB31 SLP361 P0000 T11501189


Station Type Date Time Source
KOTM Decoded METAR 2020/01/19 19:53 UTC NOAA

OTTUMWA INDUSTRIAL AIRPORT, IA, United States (KOTM) 41-06N 092-27W 256M
Jan 19, 2020 - 02:53 PM EST / 2020.01.19 1953 UTC
Wind: from the NW (310 degrees) at 17 MPH (15 KT):0
Visibility: 8 mile(s):0
Sky conditions: overcast
Weather: light snow
Precipitation last hour: A trace
Temperature: 5.0 F (-15.0 C)
Windchill: -14 F (-26 C):2
Dew Point: -2.0 F (-18.9 C)
Relative Humidity: 72%
Pressure (altimeter): 30.53 in. Hg (1033 hPa)
ob: KOTM 191953Z AUTO 31015KT 8SM -SN OVC023 M15/M19 A3053 RMK AO2 SNB31 SLP361 P0000 T11501189
cycle: 20

Station Type Date Time Source
KOTM TAF 2020/01/19 19:09 UTC NOAA

TAF
AMD KOTM 191906Z 1919/2018 31016KT P6SM OVC018
FM192200 33013KT P6SM BKN035
FM201100 31005KT P6SM VCSH OVC030
FM201300 31005KT 6SM -SHSN OVC020

Example: see airport list